Time;durP1;ratioP1;P1;durP2;ratioP2;P2;SDS_P1;SDS_P2;PMS_P1;PMS_P2;Temp;Humidity;BMP_temperature;BMP_pressure;BME280_temperature;BME280_humidity;BME280_pressure;Samples;Min_cycle;Max_cycle;Signal;HPM_P1;HPM_P2
2021/08/27 00:01:51;;;;;;;5.15;1.95;;;12.80;85.20;;;;;;5114265;28;20027;-49
2021/08/27 00:04:17;;;;;;;8.25;2.22;;;12.80;85.20;;;;;;5114613;28;20115;-47
2021/08/27 00:06:43;;;;;;;7.50;2.47;;;12.80;85.60;;;;;;5112783;28;20351;-48
2021/08/27 00:09:08;;;;;;;7.72;1.77;;;12.70;85.70;;;;;;5114241;28;20016;-49
2021/08/27 00:11:34;;;;;;;12.38;1.88;;;12.70;85.80;;;;;;5114208;28;20532;-48
2021/08/27 00:14:00;;;;;;;7.72;1.60;;;12.70;86.20;;;;;;5114041;28;20067;-51
2021/08/27 00:16:25;;;;;;;8.73;1.73;;;12.60;86.40;;;;;;5114186;28;20031;-46
2021/08/27 00:18:51;;;;;;;9.07;1.92;;;12.60;86.40;;;;;;5114236;28;20031;-47
2021/08/27 00:21:17;;;;;;;11.95;2.10;;;12.50;86.50;;;;;;5112744;28;20024;-49
2021/08/27 00:23:43;;;;;;;6.57;2.17;;;12.60;86.50;;;;;;5114361;28;20034;-48
2021/08/27 00:26:08;;;;;;;9.40;2.75;;;12.60;86.00;;;;;;5114071;28;20027;-47
2021/08/27 00:28:34;;;;;;;5.40;2.72;;;12.60;85.80;;;;;;5114057;28;20494;-47
2021/08/27 00:30:59;;;;;;;6.55;1.77;;;12.50;86.00;;;;;;5113904;28;20019;-48
2021/08/27 00:33:25;;;;;;;11.25;2.33;;;12.50;86.60;;;;;;5113719;28;20023;-47
2021/08/27 00:35:52;;;;;;;5.60;2.15;;;12.50;86.40;;;;;;5113801;28;20043;-47
2021/08/27 00:38:18;;;;;;;4.95;2.13;;;12.40;86.60;;;;;;5113267;28;20047;-47
2021/08/27 00:40:44;;;;;;;6.18;2.20;;;;;;;;;;5112346;28;20016;-47
2021/08/27 00:43:13;;;;;;;25.88;4.60;;;12.30;87.40;;;;;;5113621;28;20034;-47
2021/08/27 00:45:46;;;;;;;6.93;2.00;;;12.40;87.10;;;;;;5113619;28;20072;-47
2021/08/27 00:48:13;;;;;;;10.05;2.10;;;12.40;86.70;;;;;;5113623;28;20027;-47
2021/08/27 00:50:39;;;;;;;9.55;2.63;;;12.30;87.30;;;;;;5113467;28;20036;-51
2021/08/27 00:53:07;;;;;;;10.32;2.33;;;12.30;87.00;;;;;;5113233;27;20048;-48
2021/08/27 00:55:33;;;;;;;11.93;2.03;;;12.30;86.80;;;;;;5112201;28;20551;-51
2021/08/27 00:57:59;;;;;;;8.65;2.08;;;12.30;87.30;;;;;;5113558;28;20028;-48
2021/08/27 01:00:24;;;;;;;5.43;1.65;;;12.30;87.10;;;;;;5113116;28;20148;-47
2021/08/27 01:02:52;;;;;;;6.20;1.83;;;12.30;87.30;;;;;;5113176;28;20040;-48
2021/08/27 01:05:18;;;;;;;8.63;1.92;;;12.30;86.80;;;;;;5111826;28;20019;-46
2021/08/27 01:07:54;;;;;;;8.85;2.05;;;12.40;86.80;;;;;;5113308;28;20075;-47
2021/08/27 01:10:23;;;;;;;11.23;2.58;;;12.40;86.80;;;;;;5113389;28;20417;-48
2021/08/27 01:12:54;;;;;;;5.93;2.25;;;12.30;87.20;;;;;;5113162;28;20103;-47
2021/08/27 01:15:43;;;;;;;7.85;2.58;;;12.30;87.30;;;;;;5113327;28;20035;-48
2021/08/27 01:18:33;;;;;;;9.40;2.80;;;12.40;86.80;;;;;;5106562;28;20028;-48
2021/08/27 01:21:33;;;;;;;4.40;2.72;;;12.40;86.70;;;;;;5112893;28;20069;-48
2021/08/27 01:24:01;;;;;;;9.73;2.70;;;12.40;86.70;;;;;;5112934;28;20055;-47
2021/08/27 01:26:31;;;;;;;4.55;1.88;;;12.30;86.80;;;;;;5113661;28;20398;-48
2021/08/27 01:28:57;;;;;;;8.82;2.17;;;12.30;86.90;;;;;;5113460;28;20111;-48
2021/08/27 01:31:33;;;;;;;6.93;2.20;;;12.20;87.30;;;;;;5111882;28;20032;-47
2021/08/27 01:34:10;;;;;;;7.22;2.05;;;12.20;87.50;;;;;;5113391;28;20024;-47
2021/08/27 01:36:37;;;;;;;5.13;2.10;;;12.20;87.80;;;;;;5113119;28;20024;-47
2021/08/27 01:39:06;;;;;;;9.20;2.45;;;12.20;87.50;;;;;;5113120;28;20041;-46
2021/08/27 01:41:35;;;;;;;10.05;2.22;;;12.20;87.40;;;;;;5112992;28;20023;-47
2021/08/27 01:44:04;;;;;;;11.93;2.13;;;12.10;87.90;;;;;;5113231;28;20026;-47
2021/08/27 01:46:32;;;;;;;5.05;1.90;;;12.20;87.90;;;;;;5113238;28;20035;-47
2021/08/27 01:48:58;;;;;;;7.78;2.47;;;12.10;87.90;;;;;;5113167;28;20031;-48
2021/08/27 01:51:26;;;;;;;15.65;2.67;;;12.10;88.20;;;;;;5113691;28;20494;-47
2021/08/27 01:53:52;;;;;;;10.93;2.28;;;12.10;87.90;;;;;;5115320;28;20040;-48
2021/08/27 01:56:18;;;;;;;12.90;2.15;;;12.10;87.80;;;;;;5116909;28;20031;-47
2021/08/27 01:58:45;;;;;;;7.30;1.88;;;12.00;88.00;;;;;;5116707;28;20039;-50
2021/08/27 02:01:13;;;;;;;8.95;2.10;;;12.10;88.10;;;;;;5116965;28;20104;-47
2021/08/27 02:03:39;;;;;;;7.72;1.90;;;12.00;88.30;;;;;;5116896;28;20379;-47
2021/08/27 02:06:08;;;;;;;5.88;2.53;;;12.00;88.30;;;;;;5116639;28;20035;-47
2021/08/27 02:08:34;;;;;;;13.68;2.63;;;12.20;87.90;;;;;;5116775;28;20035;-47
2021/08/27 02:11:01;;;;;;;9.02;2.33;;;12.30;87.90;;;;;;5115232;28;20055;-48
2021/08/27 02:13:29;;;;;;;12.20;2.80;;;12.40;87.20;;;;;;5117343;28;20023;-49
2021/08/27 02:15:55;;;;;;;9.15;2.25;;;12.40;87.10;;;;;;5116698;28;20053;-46
2021/08/27 02:18:21;;;;;;;6.53;2.03;;;12.30;87.40;;;;;;5116573;28;20463;-47
2021/08/27 02:20:47;;;;;;;6.70;1.58;;;12.30;87.10;;;;;;5116232;28;20015;-46
2021/08/27 02:23:13;;;;;;;6.95;2.15;;;12.30;87.30;;;;;;5116482;28;20023;-48
2021/08/27 02:25:42;;;;;;;5.72;2.22;;;12.20;87.80;;;;;;5116228;28;20058;-50
2021/08/27 02:28:09;;;;;;;14.75;2.72;;;12.10;88.00;;;;;;5116101;28;20088;-48
2021/08/27 02:30:35;;;;;;;7.63;2.25;;;12.10;88.60;;;;;;5114814;28;20032;-48
2021/08/27 02:33:07;;;;;;;3.45;1.70;;;12.00;88.30;;;;;;5115894;28;20101;-46
2021/08/27 02:35:34;;;;;;;8.38;2.45;;;12.00;88.40;;;;;;5116366;28;20031;-47
2021/08/27 02:38:00;;;;;;;13.10;2.92;;;11.90;88.60;;;;;;5114622;28;20095;-48
2021/08/27 02:40:26;;;;;;;11.18;3.38;;;11.90;88.90;;;;;;5116178;28;20027;-46
2021/08/27 02:42:52;;;;;;;10.43;3.20;;;11.80;89.30;;;;;;5115945;28;20020;-48
2021/08/27 02:45:17;;;;;;;7.93;2.47;;;11.80;88.90;;;;;;5115952;28;20106;-46
2021/08/27 02:47:43;;;;;;;12.43;2.55;;;11.90;89.00;;;;;;5115897;28;20031;-48
2021/08/27 02:50:12;;;;;;;7.97;1.92;;;11.90;89.10;;;;;;5115738;28;20030;-46
2021/08/27 02:52:41;;;;;;;6.68;2.63;;;11.90;89.00;;;;;;5115649;28;20097;-46
2021/08/27 02:55:15;;;;;;;7.55;2.53;;;12.10;88.80;;;;;;5114658;28;20103;-48
2021/08/27 02:57:57;;;;;;;8.82;2.42;;;11.90;88.80;;;;;;5115610;28;20103;-47
2021/08/27 03:00:24;;;;;;;11.32;3.10;;;11.90;88.90;;;;;;5114245;28;20088;-50
2021/08/27 03:02:50;;;;;;;10.68;3.10;;;12.00;88.70;;;;;;5115021;28;20016;-46
2021/08/27 03:05:20;;;;;;;10.60;2.33;;;12.10;88.80;;;;;;5115775;28;20518;-47
2021/08/27 03:08:02;;;;;;;10.25;3.55;;;12.20;88.50;;;;;;5115357;28;20035;-49
2021/08/27 03:10:42;;;;;;;10.48;2.55;;;12.30;87.70;;;;;;5115542;28;20429;-46
2021/08/27 03:13:11;;;;;;;6.47;2.30;;;12.40;87.40;;;;;;5115505;28;20020;-44
2021/08/27 03:15:58;;;;;;;8.00;2.17;;;12.40;87.40;;;;;;5115235;28;20102;-50
2021/08/27 03:18:36;;;;;;;8.13;2.10;;;12.30;88.20;;;;;;5115437;28;20055;-47
2021/08/27 03:21:14;;;;;;;3.65;2.10;;;12.30;88.40;;;;;;5115583;28;20064;-48
2021/08/27 03:23:40;;;;;;;8.75;2.70;;;12.30;88.10;;;;;;5115294;28;20363;-46
2021/08/27 03:26:09;;;;;;;8.35;2.38;;;12.30;88.20;;;;;;5115249;28;20019;-45
2021/08/27 03:28:44;;;;;;;6.55;2.10;;;12.50;87.80;;;;;;5114954;28;20028;-46
2021/08/27 03:31:11;;;;;;;11.15;2.33;;;12.40;87.90;;;;;;5115403;28;20047;-46
2021/08/27 03:33:38;;;;;;;4.68;2.03;;;12.50;87.80;;;;;;5115097;28;20024;-50
2021/08/27 03:36:04;;;;;;;9.77;2.47;;;12.40;88.10;;;;;;5115809;28;20049;-47
2021/08/27 03:38:30;;;;;;;12.80;4.35;;;12.40;88.20;;;;;;5114795;28;20115;-47
2021/08/27 03:40:57;;;;;;;11.95;3.22;;;12.40;88.50;;;;;;5113465;28;20039;-47
2021/08/27 03:43:24;;;;;;;4.38;1.80;;;12.40;88.30;;;;;;5114915;28;20023;-46
2021/08/27 03:45:52;;;;;;;5.25;1.90;;;12.30;88.40;;;;;;5114652;28;20361;-46
2021/08/27 03:48:22;;;;;;;7.50;2.40;;;12.40;88.50;;;;;;5114860;28;20079;-50
2021/08/27 03:50:49;;;;;;;15.25;2.63;;;12.40;88.50;;;;;;5114660;28;20112;-46
2021/08/27 03:53:15;;;;;;;4.20;1.80;;;12.40;88.40;;;;;;5112806;28;20040;-47
2021/08/27 03:55:41;;;;;;;7.07;1.80;;;12.40;88.30;;;;;;5113028;28;20141;-47
2021/08/27 03:58:11;;;;;;;4.25;1.77;;;12.60;88.10;;;;;;5114812;28;20022;-45
2021/08/27 04:00:37;;;;;;;15.05;2.10;;;12.50;87.80;;;;;;5114580;28;20544;-49
2021/08/27 04:03:03;;;;;;;7.25;2.30;;;12.50;87.90;;;;;;5112859;28;20486;-48
2021/08/27 04:05:29;;;;;;;6.72;2.63;;;12.70;88.00;;;;;;5114447;28;20037;-50
2021/08/27 04:07:55;;;;;;;12.18;2.25;;;12.60;88.10;;;;;;5113538;28;20062;-46
2021/08/27 04:10:21;;;;;;;7.13;3.25;;;12.70;88.10;;;;;;5113925;28;20073;-46
2021/08/27 04:12:47;;;;;;;8.40;2.40;;;12.80;87.60;;;;;;5113154;28;20031;-47
2021/08/27 04:15:16;;;;;;;8.65;1.98;;;12.70;87.90;;;;;;5112865;28;20181;-46
2021/08/27 04:17:43;;;;;;;9.38;2.28;;;12.80;87.70;;;;;;5113532;28;20031;-48
2021/08/27 04:20:12;;;;;;;7.13;2.20;;;12.60;88.00;;;;;;5113369;28;20460;-48
2021/08/27 04:22:38;;;;;;;7.53;2.00;;;12.80;88.10;;;;;;5113168;28;20083;-49
2021/08/27 04:25:05;;;;;;;12.68;2.20;;;12.80;88.10;;;;;;5113107;28;20023;-48
2021/08/27 04:27:30;;;;;;;10.05;2.47;;;12.60;88.10;;;;;;5113201;28;20024;-51
2021/08/27 04:29:56;;;;;;;12.75;2.92;;;12.70;88.60;;;;;;5113469;28;20484;-48
2021/08/27 04:32:22;;;;;;;8.30;2.72;;;12.70;88.30;;;;;;5113643;28;20049;-46
2021/08/27 04:34:48;;;;;;;6.57;2.90;;;12.70;88.30;;;;;;5113682;28;20020;-47
2021/08/27 04:37:13;;;;;;;7.13;2.47;;;12.70;88.40;;;;;;5113650;28;20031;-48
2021/08/27 04:39:39;;;;;;;8.52;1.98;;;12.50;88.90;;;;;;5113681;28;20034;-47
2021/08/27 04:42:05;;;;;;;9.30;2.60;;;12.40;89.20;;;;;;5113916;28;20467;-46
2021/08/27 04:44:31;;;;;;;9.32;2.60;;;12.50;89.40;;;;;;5112657;28;20080;-47
2021/08/27 04:46:57;;;;;;;2.47;1.85;;;12.60;89.10;;;;;;5113424;28;20463;-46
2021/08/27 04:49:23;;;;;;;8.52;2.40;;;12.80;88.70;;;;;;5113280;28;20027;-47
2021/08/27 04:51:49;;;;;;;9.30;3.20;;;12.60;88.90;;;;;;5113167;28;20407;-47
2021/08/27 04:54:14;;;;;;;5.47;2.83;;;12.60;89.10;;;;;;5113558;28;20036;-47
2021/08/27 04:56:40;;;;;;;9.98;3.50;;;12.60;89.50;;;;;;5113598;28;20353;-47
2021/08/27 04:59:06;;;;;;;13.60;2.45;;;12.70;89.20;;;;;;5113620;28;20016;-50
2021/08/27 05:01:33;;;;;;;19.70;2.63;;;12.60;89.50;;;;;;5113662;28;20142;-51
2021/08/27 05:04:01;;;;;;;9.70;2.47;;;12.60;89.40;;;;;;5112352;28;20035;-49
2021/08/27 05:06:27;;;;;;;10.15;3.05;;;12.60;89.50;;;;;;5112240;28;20019;-48
2021/08/27 05:08:53;;;;;;;6.47;2.42;;;12.80;89.30;;;;;;5112272;28;20028;-49
2021/08/27 05:11:18;;;;;;;11.02;3.92;;;12.80;88.90;;;;;;5112024;28;20489;-48
2021/08/27 05:13:46;;;;;;;8.32;2.83;;;12.90;88.70;;;;;;5113368;28;20028;-49
2021/08/27 05:16:14;;;;;;;4.85;2.58;;;13.00;88.30;;;;;;5112069;28;20020;-49
2021/08/27 05:18:40;;;;;;;13.30;2.65;;;13.00;88.30;;;;;;5113145;28;20031;-47
2021/08/27 05:21:07;;;;;;;9.85;2.53;;;13.00;88.40;;;;;;5111856;28;20019;-49
2021/08/27 05:23:32;;;;;;;7.97;3.50;;;12.90;88.70;;;;;;5113208;28;20024;-48
2021/08/27 05:25:59;;;;;;;12.70;2.55;;;13.00;88.30;;;;;;5116157;28;20030;-47
2021/08/27 05:28:24;;;;;;;8.30;3.03;;;13.00;88.30;;;;;;5116122;28;20036;-50
2021/08/27 05:30:50;;;;;;;6.38;2.25;;;12.90;88.40;;;;;;5116582;28;20101;-47
2021/08/27 05:33:16;;;;;;;7.03;2.75;;;12.80;88.90;;;;;;5115926;28;20023;-47
2021/08/27 05:35:43;;;;;;;12.85;2.38;;;12.90;89.10;;;;;;5116085;28;20102;-49
2021/08/27 05:38:11;;;;;;;9.65;2.60;;;13.00;88.70;;;;;;5115691;28;20023;-48
2021/08/27 05:40:37;;;;;;;14.95;3.83;;;13.10;88.90;;;;;;5115791;28;20073;-46
2021/08/27 05:43:02;;;;;;;7.70;2.75;;;13.20;88.40;;;;;;5115868;28;20024;-45
2021/08/27 05:45:28;;;;;;;13.18;3.90;;;13.30;88.30;;;;;;5116920;28;20020;-51
2021/08/27 05:47:54;;;;;;;11.23;2.95;;;13.30;87.90;;;;;;5117321;28;20076;-45
2021/08/27 05:50:20;;;;;;;8.02;2.65;;;13.40;87.60;;;;;;5115100;28;20030;-51
2021/08/27 05:52:46;;;;;;;8.30;3.25;;;13.30;87.60;;;;;;5116200;28;20048;-47
2021/08/27 05:55:12;;;;;;;9.85;2.80;;;13.20;88.40;;;;;;5116144;28;20463;-46
2021/08/27 05:57:38;;;;;;;9.18;3.42;;;13.20;88.50;;;;;;5116439;27;20103;-47
2021/08/27 06:00:05;;;;;;;17.67;3.97;;;13.30;88.70;;;;;;5116267;28;20054;-47
2021/08/27 06:02:31;;;;;;;8.38;2.90;;;13.50;88.00;;;;;;5116321;28;20116;-49
2021/08/27 06:04:59;;;;;;;12.32;2.53;;;13.40;88.00;;;;;;5116353;28;20059;-48
2021/08/27 06:07:25;;;;;;;11.82;3.13;;;13.60;87.80;;;;;;5116282;28;20031;-48
2021/08/27 06:09:51;;;;;;;7.80;2.67;;;13.70;87.20;;;;;;5115993;28;20110;-51
2021/08/27 06:12:17;;;;;;;8.90;2.90;;;13.60;87.20;;;;;;5116081;28;20431;-47
2021/08/27 06:14:43;;;;;;;11.88;3.42;;;13.70;87.40;;;;;;5116741;28;20409;-49
2021/08/27 06:17:08;;;;;;;6.88;2.65;;;13.80;87.30;;;;;;5116012;28;20024;-47
2021/08/27 06:19:34;;;;;;;10.90;3.55;;;13.90;87.10;;;;;;5116227;28;20042;-48
2021/08/27 06:22:00;;;;;;;5.22;2.20;;;14.00;86.60;;;;;;5116080;28;20027;-47
2021/08/27 06:24:25;;;;;;;11.25;2.60;;;14.30;85.90;;;;;;5116137;28;20020;-46
2021/08/27 06:26:51;;;;;;;15.07;2.88;;;14.30;85.80;;;;;;5115785;28;20478;-50
2021/08/27 06:29:17;;;;;;;8.23;2.72;;;14.30;86.10;;;;;;5115578;28;20031;-47
2021/08/27 06:31:43;;;;;;;5.53;2.17;;;14.50;85.60;;;;;;5115796;28;20108;-47
2021/08/27 06:34:08;;;;;;;9.23;2.60;;;14.50;85.50;;;;;;5115890;28;20024;-47
2021/08/27 06:36:34;;;;;;;12.07;3.55;;;14.60;85.30;;;;;;5115015;28;20026;-47
2021/08/27 06:38:59;;;;;;;8.02;2.75;;;14.80;84.90;;;;;;5116032;28;20058;-51
2021/08/27 06:41:25;;;;;;;11.30;3.90;;;14.80;84.40;;;;;;5115800;28;20020;-49
2021/08/27 06:43:51;;;;;;;5.45;2.70;;;14.80;84.50;;;;;;5115760;28;20173;-46
2021/08/27 06:46:24;;;;;;;4.55;2.10;;;14.80;84.50;;;;;;5115582;27;20425;-47
2021/08/27 06:48:50;;;;;;;7.25;3.33;;;14.70;85.10;;;;;;5114486;28;20038;-47
2021/08/27 06:51:15;;;;;;;9.32;3.58;;;14.50;85.30;;;;;;5115585;28;20032;-47
2021/08/27 06:53:41;;;;;;;8.35;4.72;;;14.70;85.60;;;;;;5113514;28;20043;-51
2021/08/27 06:56:07;;;;;;;11.18;2.65;;;14.80;85.40;;;;;;5115313;28;20030;-49
2021/08/27 06:58:33;;;;;;;18.80;5.15;;;14.80;85.10;;;;;;5115819;28;20049;-49
2021/08/27 07:00:59;;;;;;;8.93;2.28;;;14.90;85.10;;;;;;5116364;28;20016;-47
2021/08/27 07:03:25;;;;;;;7.43;2.67;;;15.10;84.60;;;;;;5114797;27;20032;-49
2021/08/27 07:05:50;;;;;;;7.35;3.42;;;15.10;84.20;;;;;;5115457;28;20024;-46
2021/08/27 07:08:16;;;;;;;11.40;3.05;;;15.20;84.30;;;;;;5115459;28;20029;-48
2021/08/27 07:10:42;;;;;;;7.05;2.42;;;15.30;84.30;;;;;;5113425;28;20546;-47
2021/08/27 07:13:08;;;;;;;9.27;2.70;;;15.30;83.90;;;;;;5114164;28;20131;-47
2021/08/27 07:15:34;;;;;;;11.23;2.90;;;15.50;83.60;;;;;;5114758;28;20451;-47
2021/08/27 07:18:00;;;;;;;10.57;2.47;;;15.60;83.20;;;;;;5114492;28;20426;-47
2021/08/27 07:20:26;;;;;;;6.82;2.22;;;15.90;82.50;;;;;;5114958;28;20467;-49
2021/08/27 07:22:52;;;;;;;7.50;2.85;;;16.10;81.50;;;;;;5113627;28;20020;-47
2021/08/27 07:25:19;;;;;;;13.10;5.15;;;16.20;81.10;;;;;;5114453;28;20029;-49
2021/08/27 07:27:44;;;;;;;7.13;3.80;;;16.00;81.20;;;;;;5114505;28;20102;-50
2021/08/27 07:30:12;;;;;;;10.55;3.63;;;16.00;81.60;;;;;;5114189;28;20438;-49
2021/08/27 07:32:37;;;;;;;10.90;3.00;;;16.00;81.40;;;;;;5114485;28;20028;-50
2021/08/27 07:35:05;;;;;;;7.85;3.38;;;16.20;80.80;;;;;;5114588;28;20468;-48
2021/08/27 07:37:30;;;;;;;7.93;4.00;;;16.10;80.90;;;;;;5114565;28;20051;-48
2021/08/27 07:39:56;;;;;;;13.48;4.78;;;16.10;80.90;;;;;;5114084;28;20051;-48
2021/08/27 07:42:22;;;;;;;5.88;3.30;;;16.20;80.60;;;;;;5113935;28;20023;-49
2021/08/27 07:44:48;;;;;;;7.63;3.25;;;16.30;80.50;;;;;;5113576;28;20487;-48
2021/08/27 07:47:14;;;;;;;10.88;5.28;;;16.30;80.20;;;;;;5114295;28;20024;-48
2021/08/27 07:49:39;;;;;;;10.13;4.13;;;16.40;80.50;;;;;;5114702;28;20539;-51
2021/08/27 07:52:05;;;;;;;17.48;5.22;;;16.30;80.90;;;;;;5113878;28;20896;-50
2021/08/27 07:54:31;;;;;;;9.82;4.43;;;16.30;81.50;;;;;;5114324;28;20392;-49
2021/08/27 07:56:57;;;;;;;7.75;4.15;;;16.30;80.90;;;;;;5114077;27;20475;-49
2021/08/27 07:59:23;;;;;;;11.85;3.40;;;16.40;80.70;;;;;;5114063;28;20149;-48
2021/08/27 08:01:49;;;;;;;10.70;4.20;;;16.30;80.10;;;;;;5114044;28;20348;-47
2021/08/27 08:04:15;;;;;;;11.07;3.88;;;16.30;80.40;;;;;;5113312;28;20112;-47
2021/08/27 08:06:41;;;;;;;9.88;3.90;;;17.10;77.90;;;;;;5113732;28;20471;-47
2021/08/27 08:09:07;;;;;;;7.63;3.08;;;17.40;76.00;;;;;;5113283;28;20020;-50
2021/08/27 08:11:33;;;;;;;15.82;4.25;;;17.10;77.10;;;;;;5113136;28;20080;-48
2021/08/27 08:13:59;;;;;;;12.60;3.78;;;17.20;77.10;;;;;;5112924;28;20365;-46
2021/08/27 08:16:25;;;;;;;10.55;4.68;;;16.90;77.60;;;;;;5113585;28;20465;-46
2021/08/27 08:18:51;;;;;;;11.32;3.65;;;16.80;78.10;;;;;;5112573;28;20032;-46
2021/08/27 08:21:20;;;;;;;7.13;3.20;;;16.80;79.00;;;;;;5112168;28;20051;-46
2021/08/27 08:23:45;;;;;;;7.70;3.08;;;17.60;76.60;;;;;;5113303;28;20080;-47
2021/08/27 08:26:11;;;;;;;13.88;3.80;;;18.30;73.50;;;;;;5113407;28;20410;-47
2021/08/27 08:28:37;;;;;;;6.78;2.55;;;18.40;72.90;;;;;;5113392;28;20475;-46
2021/08/27 08:31:03;;;;;;;16.23;5.82;;;18.20;73.30;;;;;;5113230;28;20024;-46
2021/08/27 08:33:28;;;;;;;8.75;2.47;;;18.30;73.50;;;;;;5113377;28;20490;-47
2021/08/27 08:35:54;;;;;;;9.23;2.83;;;18.70;71.00;;;;;;5112936;28;20359;-47
2021/08/27 08:38:21;;;;;;;4.15;2.13;;;18.80;71.60;;;;;;5113187;28;20098;-47
2021/08/27 08:40:47;;;;;;;11.68;2.55;;;18.10;73.00;;;;;;5113223;28;20064;-49
2021/08/27 08:43:13;;;;;;;8.90;2.55;;;17.20;75.90;;;;;;5111853;28;20027;-50
2021/08/27 08:45:44;;;;;;;4.45;2.47;;;17.10;77.10;;;;;;5113473;28;20035;-47
2021/08/27 08:48:11;;;;;;;5.20;2.63;;;17.10;77.00;;;;;;5112385;28;20020;-47
2021/08/27 08:50:39;;;;;;;6.35;2.80;;;17.30;76.50;;;;;;5111838;28;20084;-48
2021/08/27 08:53:05;;;;;;;3.53;1.98;;;17.30;76.20;;;;;;5111443;28;20124;-48
2021/08/27 08:55:32;;;;;;;9.85;2.78;;;17.30;76.60;;;;;;5111308;28;20023;-48
2021/08/27 08:57:58;;;;;;;9.25;2.85;;;17.50;75.70;;;;;;5113140;28;20024;-49
2021/08/27 09:00:24;;;;;;;6.25;2.70;;;17.60;75.50;;;;;;5112198;28;20107;-48
2021/08/27 09:02:50;;;;;;;7.55;3.28;;;17.70;75.40;;;;;;5112865;28;20382;-47
2021/08/27 09:05:15;;;;;;;5.43;2.35;;;17.80;75.00;;;;;;5112840;28;20107;-48
2021/08/27 09:07:41;;;;;;;6.53;2.35;;;17.70;75.90;;;;;;5112749;28;20015;-49
2021/08/27 09:10:08;;;;;;;6.88;2.03;;;17.60;75.40;;;;;;5113267;28;20031;-47
2021/08/27 09:12:33;;;;;;;4.35;2.58;;;17.50;76.30;;;;;;5113027;28;20494;-48
2021/08/27 09:15:07;;;;;;;7.45;2.25;;;17.40;76.60;;;;;;5112124;28;20035;-52
2021/08/27 09:17:42;;;;;;;4.97;1.73;;;17.50;76.60;;;;;;5112314;28;20111;-52
2021/08/27 09:20:22;;;;;;;4.95;2.00;;;17.60;75.60;;;;;;5114877;28;20027;-51
2021/08/27 09:22:53;;;;;;;5.20;2.30;;;17.50;75.50;;;;;;5111826;28;20064;-49
2021/08/27 09:25:31;;;;;;;7.90;2.80;;;17.30;76.40;;;;;;5112704;28;20032;-48
2021/08/27 09:28:02;;;;;;;7.85;2.30;;;17.30;76.60;;;;;;5113040;28;20028;-47
2021/08/27 09:30:29;;;;;;;8.40;1.98;;;17.40;76.70;;;;;;5113290;28;20084;-48
2021/08/27 09:32:55;;;;;;;9.27;1.90;;;17.60;75.70;;;;;;5112835;28;20024;-47
2021/08/27 09:35:23;;;;;;;12.07;1.98;;;17.80;74.70;;;;;;5113218;28;20104;-51
2021/08/27 09:37:52;;;;;;;8.70;2.17;;;18.40;72.90;;;;;;5111249;28;20467;-52
2021/08/27 09:40:20;;;;;;;5.32;2.22;;;18.70;71.30;;;;;;5112525;28;20028;-48
2021/08/27 09:42:51;;;;;;;5.25;2.08;;;19.30;69.70;;;;;;5112818;28;20030;-48
2021/08/27 09:45:18;;;;;;;10.10;1.88;;;19.10;69.50;;;;;;5112253;28;20081;-46
2021/08/27 09:47:59;;;;;;;6.07;2.30;;;18.80;70.90;;;;;;5112533;28;20027;-47
2021/08/27 09:50:27;;;;;;;4.13;1.40;;;18.50;71.70;;;;;;5112623;28;20414;-48
2021/08/27 09:53:04;;;;;;;4.65;2.42;;;18.40;72.60;;;;;;5111935;28;20043;-47
2021/08/27 09:55:32;;;;;;;3.55;1.40;;;19.00;69.90;;;;;;5111045;28;20418;-47
2021/08/27 09:58:10;;;;;;;4.85;1.65;;;19.20;69.10;;;;;;5112471;28;20151;-46
2021/08/27 10:00:40;;;;;;;5.95;1.90;;;19.30;69.10;;;;;;5112352;28;20028;-48
2021/08/27 10:03:16;;;;;;;;;;;18.80;69.20;;;;;;5112950;28;20341;-46
2021/08/27 10:05:42;;;;;;;5.93;1.90;;;18.80;70.00;;;;;;5113175;28;19904;-49
2021/08/27 10:08:13;;;;;;;5.15;1.50;;;19.70;68.40;;;;;;5094261;28;20065;-50
2021/08/27 10:10:39;;;;;;;4.00;2.05;;;20.10;67.00;;;;;;5112268;28;20027;-46
2021/08/27 10:13:05;;;;;;;6.78;1.85;;;20.00;66.40;;;;;;5113829;28;20055;-48
2021/08/27 10:15:30;;;;;;;4.10;1.83;;;19.60;67.50;;;;;;5115873;28;20030;-46
2021/08/27 10:17:56;;;;;;;8.00;2.22;;;19.60;67.50;;;;;;5115796;28;20031;-48
2021/08/27 10:20:22;;;;;;;6.53;1.92;;;20.20;66.60;;;;;;5115830;28;20070;-51
2021/08/27 10:22:48;;;;;;;8.35;2.58;;;20.80;63.10;;;;;;5114770;28;20028;-49
2021/08/27 10:25:14;;;;;;;4.97;1.55;;;21.50;60.40;;;;;;5115453;28;20489;-49
2021/08/27 10:27:45;;;;;;;12.63;2.95;;;21.80;58.70;;;;;;5116273;28;20036;-48
2021/08/27 10:30:11;;;;;;;6.22;1.98;;;22.10;58.20;;;;;;5116320;28;20027;-48
2021/08/27 10:32:40;;;;;;;5.47;1.67;;;22.30;57.10;;;;;;5114140;28;20178;-48
2021/08/27 10:35:07;;;;;;;4.78;1.45;;;22.80;55.20;;;;;;5116046;28;20027;-49
2021/08/27 10:37:43;;;;;;;4.10;1.42;;;22.10;57.40;;;;;;5115600;28;20069;-48
2021/08/27 10:40:25;;;;;;;11.27;2.17;;;21.80;58.90;;;;;;5116072;28;20069;-48
2021/08/27 10:42:55;;;;;;;9.90;2.67;;;21.50;60.50;;;;;;5114471;28;20015;-48
2021/08/27 10:45:30;;;;;;;4.90;1.98;;;20.90;61.80;;;;;;5115897;28;20506;-48
2021/08/27 10:48:13;;;;;;;5.32;1.90;;;20.10;64.60;;;;;;5115746;28;20050;-48
2021/08/27 10:50:42;;;;;;;3.85;1.65;;;19.50;67.20;;;;;;5115455;28;20059;-49
2021/08/27 10:53:24;;;;;;;4.30;2.28;;;19.30;67.70;;;;;;5114827;28;20040;-48
2021/08/27 10:55:50;;;;;;;2.80;1.45;;;20.80;63.10;;;;;;5115524;28;20016;-47
2021/08/27 10:58:18;;;;;;;3.53;1.88;;;22.10;56.00;;;;;;5114791;28;20030;-51
2021/08/27 11:00:52;;;;;;;5.82;1.50;;;22.20;55.30;;;;;;5113704;28;20019;-53
2021/08/27 11:03:22;;;;;;;4.25;1.25;;;23.10;52.10;;;;;;5115690;28;20110;-48
2021/08/27 11:05:49;;;;;;;4.22;1.58;;;22.00;55.10;;;;;;5115296;27;20035;-48
2021/08/27 11:08:30;;;;;;;2.85;1.33;;;21.00;58.40;;;;;;5115241;28;20494;-49
2021/08/27 11:11:08;;;;;;;3.00;1.20;;;20.50;58.40;;;;;;5115025;28;20076;-48
2021/08/27 11:13:38;;;;;;;5.93;2.25;;;20.00;59.80;;;;;;5113313;28;20084;-49
2021/08/27 11:16:19;;;;;;;3.65;1.17;;;20.90;58.30;;;;;;5114421;27;20083;-46
2021/08/27 11:18:45;;;;;;;3.53;1.25;;;21.60;56.20;;;;;;5114629;28;20392;-47
2021/08/27 11:21:31;;;;;;;6.50;2.20;;;22.20;54.70;;;;;;5114644;28;20024;-48
2021/08/27 11:24:13;;;;;;;6.28;1.38;;;21.00;58.90;;;;;;5114166;28;20032;-51
2021/08/27 11:27:02;;;;;;;4.78;1.50;;;21.00;59.70;;;;;;5115025;28;20035;-50
2021/08/27 11:29:29;;;;;;;7.13;1.73;;;20.90;60.00;;;;;;5113949;28;20020;-47
2021/08/27 11:31:55;;;;;;;4.57;2.80;;;20.60;61.30;;;;;;5113295;28;20398;-47
2021/08/27 11:34:56;;;;;;;4.75;1.60;;;20.30;63.20;;;;;;5114690;28;20028;-47
2021/08/27 11:37:31;;;;;;;9.52;1.60;;;20.10;63.20;;;;;;5107771;28;20067;-47
2021/08/27 11:39:58;;;;;;;4.97;2.30;;;20.30;61.80;;;;;;5114551;28;20041;-50
2021/08/27 11:42:29;;;;;;;7.25;2.30;;;20.40;60.00;;;;;;5118254;28;20103;-47
2021/08/27 11:45:06;;;;;;;7.60;2.80;;;20.20;61.10;;;;;;5120307;28;20073;-48
2021/08/27 11:47:43;;;;;;;6.65;1.50;;;20.00;62.30;;;;;;5114221;28;20099;-48
2021/08/27 11:50:10;;;;;;;4.95;1.40;;;19.70;63.20;;;;;;5113907;28;20023;-49
2021/08/27 11:52:37;;;;;;;4.53;1.35;;;20.00;62.30;;;;;;5113934;28;20055;-48
2021/08/27 11:55:06;;;;;;;2.17;1.15;;;21.80;57.10;;;;;;5114831;28;20351;-48
2021/08/27 11:57:32;;;;;;;3.67;1.80;;;21.90;56.00;;;;;;5114733;28;20020;-48
2021/08/27 12:00:10;;;;;;;3.17;1.45;;;21.90;54.80;;;;;;5114222;28;20042;-46
2021/08/27 12:02:36;;;;;;;4.07;1.40;;;21.50;57.50;;;;;;5112446;28;20027;-49
2021/08/27 12:05:05;;;;;;;6.50;2.25;;;22.30;56.50;;;;;;5113504;28;20042;-47
2021/08/27 12:07:31;;;;;;;4.10;1.67;;;22.70;55.00;;;;;;5113901;28;20375;-47
2021/08/27 12:10:08;;;;;;;4.40;1.85;;;22.30;56.30;;;;;;5113719;28;20019;-49
2021/08/27 12:12:36;;;;;;;5.43;1.63;;;22.10;57.50;;;;;;5113981;28;20066;-46
2021/08/27 12:15:06;;;;;;;2.70;1.55;;;21.40;58.80;;;;;;5113903;28;20019;-51
2021/08/27 12:17:32;;;;;;;5.85;1.58;;;21.60;58.40;;;;;;5112704;28;20424;-48
2021/08/27 12:20:02;;;;;;;4.13;2.15;;;21.10;61.50;;;;;;5114013;28;20112;-50
2021/08/27 12:22:29;;;;;;;;;;;20.30;65.40;;;;;;5112568;28;20015;-50
2021/08/27 12:24:56;;;;;;;8.27;2.22;;;19.70;68.20;;;;;;5111995;28;20352;-49
2021/08/27 12:27:23;;;;;;;2.78;1.77;;;19.50;68.80;;;;;;5112030;28;20429;-49
2021/08/27 12:30:09;;;;;;;2.63;1.83;;;19.50;68.90;;;;;;5113112;28;20026;-46
2021/08/27 12:32:35;;;;;;;3.72;1.20;;;20.40;65.00;;;;;;5113411;28;20103;-49
2021/08/27 12:35:01;;;;;;;5.45;1.38;;;20.80;62.20;;;;;;5112520;28;20117;-47
2021/08/27 12:37:28;;;;;;;4.90;1.85;;;20.10;63.90;;;;;;5113914;28;20107;-46
2021/08/27 12:39:54;;;;;;;3.53;1.77;;;19.80;64.90;;;;;;5111779;28;20105;-47
2021/08/27 12:42:20;;;;;;;5.63;2.13;;;20.00;63.50;;;;;;5113149;28;20059;-49
2021/08/27 12:44:57;;;;;;;3.25;1.70;;;19.80;64.80;;;;;;5113164;28;20023;-47
2021/08/27 12:47:31;;;;;;;4.97;1.63;;;19.60;66.30;;;;;;5113065;28;20020;-47
2021/08/27 12:50:03;;;;;;;4.97;1.73;;;19.60;66.70;;;;;;5112943;28;20071;-45
2021/08/27 12:52:28;;;;;;;3.30;1.50;;;19.50;66.80;;;;;;5112847;28;20099;-47